MET'MAP v2.0
soon released !

Expected late october,
this new version will be
more efficient, smarter,
and hosted on a brand new
server x3 powerfull...
...and still free !


Not compatible ?
Try the mobile version !

LOG IN : | Subscribe | Disclaimer | Who is Orbifly ? |
ICAO code :

TAF - LYVR Vršac International Airport - 27 May 2020 12:10 UTC - Data Source NOAA   


- Airport Elevation : 276 ft
- No reported NOTAMs.


LYVR - Vršac International Airport

Latest METAR recorded : 2015/08/11 08:00 LYVR 110800Z VRB02KT 9999 FEW040 30/10 Q1013 NOSIG
TAF TAF LYVR
Valid from the 27 at 06:00 until the 28 at 06:00 UTC


270500Z 2706/2806 34005KT 9999 BKN030 TX17/2713Z TN09/2803Z
TEMPO 2706/2709 BKN005
TEMPO 2711/2717 36015KT 3000 TSRA SCT027CB BKN033
BECMG 2800/2802 2000 BR BKN005
TEMPO 2803/2806 0500 FG BKN003

Source NOAA


MET'MAP, your aeronautical weather chart ! - Copyright ORBIFLY December 2007

Programming & Development : Alexandra Zaïnal
Co-Developer : Marc-Olivier Méhu
Technical & hardware support : Manuel Goepfert
Concept & Financing : Baudouin d'Aumeries